createdAt,value
2019-01-28T00:00:27.023Z,42.97
2019-01-28T00:02:53.923Z,37.60
2019-01-28T00:05:20.632Z,36.40
2019-01-28T00:07:47.263Z,39.73
2019-01-28T00:10:13.860Z,40.43
2019-01-28T00:12:40.637Z,43.83
2019-01-28T00:15:07.220Z,42.20
2019-01-28T00:17:33.822Z,41.40
2019-01-28T00:20:00.428Z,38.20
2019-01-28T00:22:27.099Z,40.30
2019-01-28T00:24:53.699Z,40.33
2019-01-28T00:27:20.395Z,39.50
2019-01-28T00:29:47.029Z,40.60
2019-01-28T00:32:13.620Z,35.43
2019-01-28T00:34:40.173Z,37.60
2019-01-28T00:37:06.837Z,42.27
2019-01-28T00:39:33.592Z,40.00
2019-01-28T00:42:00.198Z,38.80
2019-01-28T00:44:26.820Z,34.20
2019-01-28T00:46:53.401Z,42.43
2019-01-28T00:49:19.975Z,41.03
2019-01-28T00:51:46.599Z,41.10
2019-01-28T00:54:13.278Z,41.27
2019-01-28T00:56:39.940Z,35.43
2019-01-28T00:59:06.589Z,37.10
2019-01-28T01:01:33.549Z,34.17
2019-01-28T01:04:00.647Z,43.80
2019-01-28T01:06:27.668Z,37.30
2019-01-28T01:08:54.732Z,42.07
2019-01-28T01:11:21.715Z,38.67
2019-01-28T01:13:48.821Z,38.03
2019-01-28T01:16:15.793Z,35.17
2019-01-28T01:18:42.847Z,43.23
2019-01-28T01:21:10.193Z,35.83
2019-01-28T01:23:37.396Z,38.33
2019-01-28T01:26:04.371Z,37.27
2019-01-28T01:28:31.351Z,35.43
2019-01-28T01:30:58.539Z,30.57
2019-01-28T01:33:25.540Z,43.70
2019-01-28T01:35:52.498Z,42.70
2019-01-28T01:38:19.463Z,37.97
2019-01-28T01:40:46.410Z,41.03
2019-01-28T01:43:13.529Z,31.20
2019-01-28T01:45:40.619Z,35.13
2019-01-28T01:48:07.708Z,38.23
2019-01-28T01:50:34.789Z,43.57
2019-01-28T01:53:01.877Z,39.27
2019-01-28T01:55:29.019Z,38.57
2019-01-28T01:57:56.036Z,34.57
2019-01-28T02:00:23.123Z,35.80
2019-01-28T02:02:49.789Z,33.17
2019-01-28T02:05:16.678Z,37.33
2019-01-28T02:07:43.810Z,35.67
2019-01-28T02:10:13.528Z,38.47
2019-01-28T02:12:40.642Z,37.40
2019-01-28T02:15:12.519Z,40.97
2019-01-28T02:17:39.568Z,41.83
2019-01-28T02:20:09.003Z,34.43
2019-01-28T02:22:36.494Z,39.30
2019-01-28T02:25:07.648Z,37.50
2019-01-28T02:27:34.652Z,38.33
2019-01-28T02:30:03.938Z,35.23
2019-01-28T02:32:31.141Z,36.47
2019-01-28T02:34:58.191Z,37.60
2019-01-28T02:37:25.384Z,39.10
2019-01-28T02:39:52.250Z,36.37
2019-01-28T02:42:19.332Z,35.43
2019-01-28T02:44:46.342Z,40.60
2019-01-28T02:47:16.496Z,38.50
2019-01-28T02:49:43.453Z,38.10
2019-01-28T02:52:10.423Z,38.10
2019-01-28T02:54:37.261Z,37.90
2019-01-28T02:57:04.106Z,36.73
2019-01-28T02:59:31.385Z,41.07
2019-01-28T03:01:59.192Z,33.77
2019-01-28T03:04:26.480Z,36.37
2019-01-28T03:06:53.377Z,35.10
2019-01-28T03:09:20.299Z,32.47
2019-01-28T03:11:47.295Z,36.80
2019-01-28T03:14:14.401Z,39.50
2019-01-28T03:16:41.379Z,36.30
2019-01-28T03:19:08.336Z,36.67
2019-01-28T03:21:35.422Z,34.83
2019-01-28T03:24:02.592Z,33.50
2019-01-28T03:26:29.565Z,42.30
2019-01-28T03:28:56.628Z,38.13
2019-01-28T03:31:23.712Z,35.90
2019-01-28T03:33:50.802Z,31.90
2019-01-28T03:36:17.498Z,35.50
2019-01-28T03:38:44.494Z,37.87
2019-01-28T03:41:11.614Z,33.97
2019-01-28T03:43:38.561Z,32.57
2019-01-28T03:46:05.529Z,34.57
2019-01-28T03:48:32.812Z,35.80
2019-01-28T03:50:59.726Z,38.60
2019-01-28T03:53:26.972Z,35.53
2019-01-28T03:55:53.951Z,29.60
2019-01-28T03:58:20.913Z,30.53
2019-01-28T04:00:48.050Z,33.43
2019-01-28T04:03:16.280Z,33.27
2019-01-28T04:05:43.275Z,33.20
2019-01-28T04:08:10.243Z,32.20
2019-01-28T04:10:37.341Z,33.37
2019-01-28T04:13:04.399Z,32.40
2019-01-28T04:15:32.565Z,31.30
2019-01-28T04:17:59.842Z,33.97
2019-01-28T04:20:27.282Z,31.97
2019-01-28T04:22:54.277Z,31.10
2019-01-28T04:25:21.342Z,30.53
2019-01-28T04:27:48.367Z,35.63
2019-01-28T04:30:19.554Z,27.60
2019-01-28T04:32:46.613Z,30.47
2019-01-28T04:35:13.618Z,32.90
2019-01-28T04:37:41.228Z,28.57
2019-01-28T04:40:11.701Z,28.60
2019-01-28T04:42:38.664Z,27.27
2019-01-28T04:45:11.281Z,31.80
2019-01-28T04:47:38.190Z,35.30
2019-01-28T04:50:10.020Z,25.97
2019-01-28T04:52:37.058Z,31.83
2019-01-28T04:55:06.290Z,26.07
2019-01-28T04:57:33.164Z,30.83
2019-01-28T05:00:00.271Z,30.83
2019-01-28T05:02:27.268Z,30.23
2019-01-28T05:04:54.319Z,31.70
2019-01-28T05:07:21.339Z,32.00
2019-01-28T05:09:48.250Z,32.17
2019-01-28T05:12:15.558Z,26.90
2019-01-28T05:14:42.219Z,31.30
2019-01-28T05:17:09.067Z,29.57
2019-01-28T05:19:36.040Z,29.10
2019-01-28T05:22:02.989Z,30.27
2019-01-28T05:24:29.682Z,27.93
2019-01-28T05:26:56.536Z,31.57
2019-01-28T05:29:23.405Z,28.23
2019-01-28T05:31:50.373Z,29.13
2019-01-28T05:34:17.321Z,34.80
2019-01-28T05:36:44.301Z,37.43
2019-01-28T05:39:11.189Z,30.77
2019-01-28T05:41:38.166Z,34.00
2019-01-28T05:44:05.196Z,35.17
2019-01-28T05:46:33.576Z,35.23
2019-01-28T05:49:00.581Z,26.60
2019-01-28T05:51:27.561Z,34.93
2019-01-28T05:53:54.569Z,31.13
2019-01-28T05:56:21.548Z,36.93
2019-01-28T05:58:48.687Z,36.40
2019-01-28T06:01:15.876Z,37.37
2019-01-28T06:03:42.676Z,34.57
2019-01-28T06:06:09.297Z,38.00
2019-01-28T06:08:36.226Z,43.30
2019-01-28T06:11:03.254Z,38.80
2019-01-28T06:13:30.272Z,33.80
2019-01-28T06:15:57.283Z,38.03
2019-01-28T06:18:24.020Z,35.63
2019-01-28T06:20:50.610Z,36.53
2019-01-28T06:23:17.229Z,42.37
2019-01-28T06:25:43.857Z,41.30
2019-01-28T06:28:10.406Z,41.77
2019-01-28T06:30:37.010Z,39.47
2019-01-28T06:33:03.699Z,38.90
2019-01-28T06:35:30.246Z,38.27
2019-01-28T06:37:56.845Z,35.13
2019-01-28T06:40:27.611Z,38.20
2019-01-28T06:42:55.191Z,38.23
2019-01-28T06:45:21.794Z,44.50
2019-01-28T06:47:48.422Z,39.63
2019-01-28T06:50:18.345Z,38.37
2019-01-28T06:52:44.953Z,40.97
2019-01-28T06:55:11.539Z,42.97
2019-01-28T06:57:38.167Z,42.63
2019-01-28T07:00:10.543Z,47.60
2019-01-28T07:02:37.142Z,42.07
2019-01-28T07:05:04.404Z,42.47
2019-01-28T07:07:31.181Z,50.83
2019-01-28T07:09:57.789Z,38.77
2019-01-28T07:12:24.365Z,42.80
2019-01-28T07:14:50.977Z,46.47
2019-01-28T07:17:19.038Z,43.83
2019-01-28T07:19:45.635Z,40.53
2019-01-28T07:22:12.252Z,40.30
2019-01-28T07:24:38.901Z,40.67
2019-01-28T07:27:05.497Z,35.10
2019-01-28T07:29:32.378Z,42.90
2019-01-28T07:32:00.102Z,39.83
2019-01-28T07:34:26.915Z,37.97
2019-01-28T07:36:53.522Z,47.70
2019-01-28T07:39:20.121Z,41.03
2019-01-28T07:41:46.750Z,37.33
2019-01-28T07:44:13.329Z,39.47
2019-01-28T07:46:39.904Z,38.83
2019-01-28T07:49:06.598Z,42.67
2019-01-28T07:51:33.438Z,43.60
2019-01-28T07:54:00.042Z,37.90
2019-01-28T07:56:26.827Z,42.67
2019-01-28T07:58:53.405Z,44.50
2019-01-28T08:01:20.001Z,35.23
2019-01-28T08:03:46.683Z,38.90
2019-01-28T08:06:13.266Z,42.40
2019-01-28T08:08:39.884Z,36.60
2019-01-28T08:11:06.462Z,40.23
2019-01-28T08:13:33.272Z,36.40
2019-01-28T08:15:59.927Z,42.60
2019-01-28T08:18:26.517Z,40.87
2019-01-28T08:20:53.195Z,41.30
2019-01-28T08:23:19.821Z,42.67
2019-01-28T08:25:46.390Z,37.53
2019-01-28T08:28:12.983Z,38.97
2019-01-28T08:30:39.604Z,38.80
2019-01-28T08:33:06.327Z,36.03
2019-01-28T08:35:33.533Z,35.07
2019-01-28T08:38:00.276Z,38.17
2019-01-28T08:40:26.957Z,41.07
2019-01-28T08:42:53.541Z,41.67
2019-01-28T08:45:20.296Z,44.47
2019-01-28T08:47:47.042Z,39.57
2019-01-28T08:50:18.073Z,41.17
2019-01-28T08:52:44.850Z,47.47
2019-01-28T08:55:15.631Z,39.70
2019-01-28T08:57:42.313Z,42.60
2019-01-28T09:00:14.676Z,41.10
2019-01-28T09:02:41.466Z,40.53
2019-01-28T09:05:09.991Z,35.30
2019-01-28T09:07:36.723Z,45.53
2019-01-28T09:10:08.660Z,37.03
2019-01-28T09:12:35.267Z,46.13
2019-01-28T09:15:05.785Z,41.43
2019-01-28T09:17:32.658Z,42.83
2019-01-28T09:19:59.372Z,44.97
2019-01-28T09:22:26.012Z,47.17
2019-01-28T09:24:52.584Z,42.80
2019-01-28T09:27:19.148Z,43.23
2019-01-28T09:29:45.789Z,39.63
2019-01-28T09:32:12.371Z,39.70
2019-01-28T09:34:39.056Z,45.00
2019-01-28T09:37:05.756Z,44.17
2019-01-28T09:39:32.456Z,38.33
2019-01-28T09:41:59.042Z,38.07
2019-01-28T09:44:25.610Z,34.00
2019-01-28T09:46:52.228Z,39.83
2019-01-28T09:49:18.786Z,39.13
2019-01-28T09:51:45.356Z,40.50
2019-01-28T09:54:11.954Z,44.17
2019-01-28T09:56:38.564Z,39.90
2019-01-28T09:59:05.404Z,43.93
2019-01-28T10:01:32.123Z,46.07
2019-01-28T10:03:58.999Z,46.83
2019-01-28T10:06:25.824Z,38.27
2019-01-28T10:08:52.428Z,35.77
2019-01-28T10:11:19.010Z,47.13
2019-01-28T10:13:45.633Z,46.83
2019-01-28T10:16:12.229Z,41.03
2019-01-28T10:18:41.896Z,41.93
2019-01-28T10:21:07.384Z,37.63
2019-01-28T10:23:34.051Z,38.90
2019-01-28T10:26:04.703Z,46.63
2019-01-28T10:28:31.956Z,40.70
2019-01-28T10:30:58.523Z,42.80
2019-01-28T10:33:25.129Z,35.17
2019-01-28T10:35:51.703Z,39.30
2019-01-28T10:38:18.294Z,37.63
2019-01-28T10:40:45.162Z,44.00
2019-01-28T10:43:12.075Z,44.53
2019-01-28T10:45:38.636Z,43.93
2019-01-28T10:48:10.067Z,38.57
2019-01-28T10:50:39.713Z,38.57
2019-01-28T10:53:08.288Z,44.77
2019-01-28T10:55:34.890Z,52.60
2019-01-28T10:58:01.736Z,40.33
2019-01-28T11:00:34.071Z,38.93
2019-01-28T11:03:00.885Z,37.30
2019-01-28T11:05:27.653Z,39.67
2019-01-28T11:07:54.221Z,38.93
2019-01-28T11:10:24.948Z,40.50
2019-01-28T11:12:51.571Z,36.40
2019-01-28T11:15:24.046Z,38.47
2019-01-28T11:17:51.622Z,35.63
2019-01-28T11:20:18.330Z,37.53
2019-01-28T11:22:45.291Z,46.60
2019-01-28T11:25:16.639Z,44.73
2019-01-28T11:27:44.699Z,46.53
2019-01-28T11:30:17.381Z,48.93
2019-01-28T11:32:44.110Z,53.13
2019-01-28T11:35:10.792Z,58.70
2019-01-28T11:37:37.830Z,53.90
2019-01-28T11:40:10.418Z,56.97
2019-01-28T11:42:37.230Z,47.47
2019-01-28T11:45:09.723Z,55.70
2019-01-28T11:47:36.376Z,55.03
2019-01-28T11:50:07.389Z,55.63
2019-01-28T11:52:34.047Z,64.97
2019-01-28T11:55:00.658Z,46.43
2019-01-28T11:57:27.295Z,49.93
2019-01-28T11:59:53.936Z,62.20
2019-01-28T12:02:20.616Z,54.63
2019-01-28T12:04:47.189Z,55.07
2019-01-28T12:07:13.798Z,56.57
2019-01-28T12:09:40.367Z,61.10
2019-01-28T12:12:06.998Z,57.13
2019-01-28T12:14:33.693Z,57.23
2019-01-28T12:17:00.455Z,54.37
2019-01-28T12:19:27.048Z,52.57
2019-01-28T12:21:54.550Z,54.47
2019-01-28T12:24:21.181Z,53.40
2019-01-28T12:26:47.856Z,54.63
2019-01-28T12:29:14.553Z,64.10
2019-01-28T12:31:41.089Z,56.63
2019-01-28T12:34:07.669Z,63.63
2019-01-28T12:36:34.378Z,56.67
2019-01-28T12:39:01.147Z,54.63
2019-01-28T12:41:27.783Z,60.53
2019-01-28T12:43:54.396Z,58.40
2019-01-28T12:46:20.976Z,55.40
2019-01-28T12:48:47.611Z,60.60
2019-01-28T12:51:14.277Z,57.27
2019-01-28T12:53:40.925Z,58.43
2019-01-28T12:56:07.610Z,62.00
2019-01-28T12:59:31.109Z,53.53
2019-01-28T13:02:00.191Z,64.03
2019-01-28T13:04:26.880Z,60.27
2019-01-28T13:06:53.462Z,69.60
2019-01-28T13:09:20.182Z,68.77
2019-01-28T13:11:46.820Z,64.37
2019-01-28T13:14:13.404Z,67.43
2019-01-28T13:16:40.229Z,66.93
2019-01-28T13:19:06.847Z,59.37
2019-01-28T13:21:33.456Z,63.23
2019-01-28T13:24:00.148Z,72.17
2019-01-28T13:26:26.735Z,61.57
2019-01-28T13:28:53.308Z,67.20
2019-01-28T13:31:19.861Z,65.50
2019-01-28T13:33:46.454Z,57.90
2019-01-28T13:36:13.051Z,63.80
2019-01-28T13:38:39.778Z,65.63
2019-01-28T13:41:06.500Z,71.37
2019-01-28T13:43:33.258Z,60.53
2019-01-28T13:46:00.029Z,73.43
2019-01-28T13:48:29.989Z,66.47
2019-01-28T13:50:56.654Z,64.10
2019-01-28T13:53:23.259Z,61.90
2019-01-28T13:55:49.831Z,68.43
2019-01-28T13:58:17.536Z,70.20
2019-01-28T14:00:44.296Z,64.17
2019-01-28T14:03:10.984Z,69.73
2019-01-28T14:05:38.883Z,65.27
2019-01-28T14:08:05.702Z,71.80
2019-01-28T14:10:33.584Z,63.50
2019-01-28T14:13:00.326Z,75.83
2019-01-28T14:15:31.320Z,66.70
2019-01-28T14:17:57.932Z,76.43
2019-01-28T14:20:28.214Z,75.43
2019-01-28T14:22:54.852Z,73.60
2019-01-28T14:25:21.557Z,68.37
2019-01-28T14:27:49.972Z,79.30
2019-01-28T14:30:22.399Z,84.53
2019-01-28T14:32:48.983Z,79.53
2019-01-28T14:35:16.947Z,83.33
2019-01-28T14:37:43.574Z,83.87
2019-01-28T14:40:15.904Z,79.20
2019-01-28T14:42:42.694Z,74.30
2019-01-28T14:45:11.279Z,86.13
2019-01-28T14:47:37.933Z,78.40
2019-01-28T14:50:10.328Z,73.67
2019-01-28T14:52:37.074Z,86.87
2019-01-28T14:55:05.465Z,81.33
2019-01-28T14:57:32.435Z,89.87
2019-01-28T14:59:59.090Z,87.17
2019-01-28T15:02:26.773Z,82.43
2019-01-28T15:04:53.349Z,92.37
2019-01-28T15:07:19.970Z,86.40
2019-01-28T15:09:46.517Z,87.27
2019-01-28T15:12:13.102Z,87.00
2019-01-28T15:14:39.653Z,86.67
2019-01-28T15:17:06.207Z,82.63
2019-01-28T15:19:33.045Z,86.33
2019-01-28T15:21:59.912Z,85.07
2019-01-28T15:24:27.631Z,88.33
2019-01-28T15:26:54.351Z,85.43
2019-01-28T15:29:21.047Z,91.17
2019-01-28T15:31:47.607Z,89.90
2019-01-28T15:34:14.236Z,90.40
2019-01-28T15:36:40.930Z,93.73
2019-01-28T15:39:08.058Z,88.57
2019-01-28T15:41:34.835Z,89.20
2019-01-28T15:44:01.405Z,95.23
2019-01-28T15:46:28.070Z,96.63
2019-01-28T15:48:54.630Z,99.03
2019-01-28T15:51:21.226Z,87.17
2019-01-28T15:53:47.916Z,99.73
2019-01-28T15:56:14.547Z,89.80
2019-01-28T15:58:41.127Z,88.43
2019-01-28T16:01:07.699Z,91.27
2019-01-28T16:03:35.590Z,92.57
2019-01-28T16:06:02.345Z,97.17
2019-01-28T16:08:29.024Z,97.50
2019-01-28T16:10:55.862Z,87.53
2019-01-28T16:13:22.575Z,104.43
2019-01-28T16:15:49.618Z,96.60
2019-01-28T16:18:17.305Z,98.47
2019-01-28T16:20:43.958Z,95.30
2019-01-28T16:23:10.562Z,96.90
2019-01-28T16:25:37.163Z,100.53
2019-01-28T16:28:04.313Z,91.43
2019-01-28T16:30:31.080Z,108.43
2019-01-28T16:32:57.892Z,101.57
2019-01-28T16:35:24.629Z,99.00
2019-01-28T16:37:52.360Z,96.43
2019-01-28T16:40:25.180Z,99.13
2019-01-28T16:42:52.029Z,98.47
2019-01-28T16:45:18.634Z,94.13
2019-01-28T16:47:45.315Z,94.57
2019-01-28T16:50:17.593Z,100.30
2019-01-28T16:52:44.406Z,99.27
2019-01-28T16:55:13.574Z,106.87
2019-01-28T16:57:40.817Z,99.43
2019-01-28T17:00:13.108Z,109.53
2019-01-28T17:02:39.808Z,100.17
2019-01-28T17:05:10.508Z,102.60
2019-01-28T17:07:37.119Z,90.67
2019-01-28T17:10:08.787Z,102.83
2019-01-28T17:12:35.453Z,106.67
2019-01-28T17:15:05.813Z,97.57
2019-01-28T17:17:32.576Z,99.17
2019-01-28T17:20:00.328Z,104.53
2019-01-28T17:22:30.410Z,106.90
2019-01-28T17:24:57.296Z,105.33
2019-01-28T17:27:24.039Z,105.47
2019-01-28T17:29:50.605Z,113.17
2019-01-28T17:32:17.419Z,96.97
2019-01-28T17:34:44.576Z,108.60
2019-01-28T17:37:11.843Z,113.97
2019-01-28T17:39:38.847Z,108.17
2019-01-28T17:42:05.902Z,111.53
2019-01-28T17:44:32.884Z,107.40
2019-01-28T17:47:00.024Z,106.13
2019-01-28T17:49:26.789Z,112.47
2019-01-28T17:51:53.408Z,110.97
2019-01-28T17:54:19.995Z,123.63
2019-01-28T17:56:46.632Z,107.63
2019-01-28T17:59:13.370Z,116.70
2019-01-28T18:01:39.993Z,109.37
2019-01-28T18:04:06.583Z,112.63
2019-01-28T18:06:34.523Z,109.63
2019-01-28T18:09:01.290Z,117.17
2019-01-28T18:11:28.989Z,113.93
2019-01-28T18:13:55.603Z,117.10
2019-01-28T18:16:22.179Z,111.23
2019-01-28T18:18:48.912Z,115.33
2019-01-28T18:21:15.559Z,114.70
2019-01-28T18:23:44.033Z,120.23
2019-01-28T18:26:10.664Z,115.23
2019-01-28T18:28:37.348Z,122.47
2019-01-28T18:31:03.977Z,118.80
2019-01-28T18:33:30.554Z,112.30
2019-01-28T18:36:05.136Z,115.83
2019-01-28T18:38:25.604Z,112.63
2019-01-28T18:40:52.218Z,118.07
2019-01-28T18:43:18.778Z,118.53
2019-01-28T18:45:45.383Z,127.87
2019-01-28T18:48:13.019Z,115.03
2019-01-28T18:50:39.629Z,127.03
2019-01-28T18:53:06.609Z,118.13
2019-01-28T18:55:33.454Z,127.07
2019-01-28T18:58:00.151Z,135.30
2019-01-28T19:00:29.942Z,124.60
2019-01-28T19:02:56.591Z,126.27
2019-01-28T19:05:25.814Z,127.23
2019-01-28T19:07:54.524Z,128.47
2019-01-28T19:10:23.040Z,124.87
2019-01-28T19:12:52.749Z,123.83
2019-01-28T19:15:21.662Z,126.63
2019-01-28T19:17:50.606Z,140.17
2019-01-28T19:20:21.537Z,128.97
2019-01-28T19:22:48.597Z,146.07
2019-01-28T19:25:16.695Z,140.63
2019-01-28T19:27:43.832Z,125.40
2019-01-28T19:30:14.423Z,132.33
2019-01-28T19:32:44.280Z,133.83
2019-01-28T19:35:11.777Z,135.17
2019-01-28T19:37:38.553Z,133.10
2019-01-28T19:40:10.669Z,127.23
2019-01-28T19:42:39.133Z,143.10
2019-01-28T19:45:12.766Z,124.03
2019-01-28T19:47:39.917Z,123.50
2019-01-28T19:50:13.211Z,138.07
2019-01-28T19:52:40.817Z,132.47
2019-01-28T19:55:11.329Z,129.17
2019-01-28T19:57:39.064Z,139.77
2019-01-28T20:00:12.215Z,127.17
2019-01-28T20:02:39.921Z,125.20
2019-01-28T20:05:10.180Z,132.00
2019-01-28T20:07:36.966Z,129.63
2019-01-28T20:10:08.281Z,129.60
2019-01-28T20:12:37.551Z,129.40
2019-01-28T20:15:11.600Z,135.17
2019-01-28T20:17:38.248Z,134.33
2019-01-28T20:20:10.583Z,128.93
2019-01-28T20:22:37.327Z,122.37
2019-01-28T20:25:08.682Z,134.50
2019-01-28T20:27:35.357Z,129.63
2019-01-28T20:30:06.441Z,120.00
2019-01-28T20:32:33.218Z,122.03
2019-01-28T20:34:59.816Z,127.33
2019-01-28T20:37:26.385Z,130.63
2019-01-28T20:39:53.053Z,131.57
2019-01-28T20:42:19.775Z,128.07
2019-01-28T20:44:46.387Z,130.70
2019-01-28T20:47:13.098Z,149.77
2019-01-28T20:49:39.709Z,140.73
2019-01-28T20:52:06.348Z,133.43
2019-01-28T20:54:33.221Z,137.90
2019-01-28T20:56:59.801Z,138.20
2019-01-28T20:59:26.486Z,151.77
2019-01-28T21:01:53.111Z,157.37
2019-01-28T21:04:19.664Z,140.80
2019-01-28T21:06:46.366Z,142.30
2019-01-28T21:09:13.037Z,156.93
2019-01-28T21:11:39.610Z,159.90
2019-01-28T21:14:06.366Z,156.53
2019-01-28T21:16:33.220Z,159.47
2019-01-28T21:19:01.193Z,140.13
2019-01-28T21:21:27.788Z,146.07
2019-01-28T21:23:54.367Z,151.07
2019-01-28T21:26:20.944Z,153.50
2019-01-28T21:28:47.591Z,148.40
2019-01-28T21:31:14.152Z,148.33
2019-01-28T21:33:40.731Z,155.87
2019-01-28T21:36:07.340Z,153.47
2019-01-28T21:38:36.001Z,177.60
2019-01-28T21:41:02.790Z,153.43
2019-01-28T21:43:29.861Z,173.83
2019-01-28T21:45:56.575Z,173.83
2019-01-28T21:48:23.154Z,159.03
2019-01-28T21:50:49.861Z,171.00
2019-01-28T21:53:16.523Z,168.37
2019-01-28T21:55:43.116Z,171.90
2019-01-28T21:58:09.754Z,165.13
2019-01-28T22:00:36.437Z,178.30
2019-01-28T22:03:03.068Z,171.53
2019-01-28T22:05:29.694Z,165.50
2019-01-28T22:07:56.551Z,162.83
2019-01-28T22:10:23.210Z,176.33
2019-01-28T22:12:49.790Z,172.83
2019-01-28T22:15:17.881Z,173.43
2019-01-28T22:17:44.454Z,173.57
2019-01-28T22:20:13.770Z,153.43
2019-01-28T22:22:40.404Z,166.00
2019-01-28T22:25:12.193Z,167.03
2019-01-28T22:27:39.325Z,160.50
2019-01-28T22:30:11.809Z,172.80
2019-01-28T22:32:38.562Z,176.80
2019-01-28T22:35:07.581Z,178.13
2019-01-28T22:37:34.376Z,173.17
2019-01-28T22:40:01.200Z,167.17
2019-01-28T22:42:28.020Z,163.97
2019-01-28T22:44:54.739Z,155.97
2019-01-28T22:47:21.467Z,173.10
2019-01-28T22:49:48.126Z,167.87
2019-01-28T22:52:15.271Z,156.10
2019-01-28T22:54:43.889Z,160.83
2019-01-28T22:57:10.424Z,159.30
2019-01-28T22:59:37.704Z,154.03
2019-01-28T23:02:04.379Z,163.03
2019-01-28T23:04:33.157Z,150.57
2019-01-28T23:06:59.969Z,145.43
2019-01-28T23:10:23.134Z,152.57
2019-01-28T23:12:49.699Z,144.80
2019-01-28T23:15:16.357Z,150.53
2019-01-28T23:17:42.926Z,149.93
2019-01-28T23:20:09.786Z,147.43
2019-01-28T23:22:36.463Z,143.93
2019-01-28T23:25:05.293Z,143.67
2019-01-28T23:27:35.056Z,147.13
2019-01-28T23:30:02.036Z,140.67
2019-01-28T23:32:30.148Z,141.37
2019-01-28T23:34:57.485Z,140.57
2019-01-28T23:37:24.471Z,136.63
2019-01-28T23:39:51.479Z,136.57
2019-01-28T23:42:18.568Z,139.13
2019-01-28T23:44:45.490Z,142.80
2019-01-28T23:47:12.517Z,138.13
2019-01-28T23:49:39.700Z,134.10
2019-01-28T23:52:06.876Z,136.50
2019-01-28T23:54:33.902Z,140.47
2019-01-28T23:57:00.807Z,134.17
2019-01-28T23:59:27.934Z,134.00
